sensor_id;sensor_type;location;lat;lon;timestamp;P1;durP1;ratioP1;P2;durP2;ratioP2
13406;SDS011;6774;48.208;10.766;2023-06-22T00:00:12;10.53;;;4.87;;
13406;SDS011;6774;48.208;10.766;2023-06-22T00:02:41;5.20;;;4.07;;
13406;SDS011;6774;48.208;10.766;2023-06-22T00:05:09;3.07;;;2.87;;
13406;SDS011;6774;48.208;10.766;2023-06-22T00:07:37;2.80;;;2.60;;
13406;SDS011;6774;48.208;10.766;2023-06-22T00:10:05;2.93;;;2.73;;
13406;SDS011;6774;48.208;10.766;2023-06-22T00:12:34;4.87;;;4.27;;
13406;SDS011;6774;48.208;10.766;2023-06-22T00:15:01;3.30;;;3.00;;
13406;SDS011;6774;48.208;10.766;2023-06-22T00:17:29;3.13;;;2.77;;
13406;SDS011;6774;48.208;10.766;2023-06-22T00:19:59;3.93;;;2.80;;
13406;SDS011;6774;48.208;10.766;2023-06-22T00:22:26;3.53;;;3.33;;
13406;SDS011;6774;48.208;10.766;2023-06-22T00:24:55;5.23;;;4.73;;
13406;SDS011;6774;48.208;10.766;2023-06-22T00:27:23;3.13;;;2.87;;
13406;SDS011;6774;48.208;10.766;2023-06-22T00:29:51;3.17;;;2.97;;
13406;SDS011;6774;48.208;10.766;2023-06-22T00:32:20;2.87;;;2.77;;
13406;SDS011;6774;48.208;10.766;2023-06-22T00:34:48;3.73;;;3.43;;
13406;SDS011;6774;48.208;10.766;2023-06-22T00:37:18;2.57;;;2.47;;
13406;SDS011;6774;48.208;10.766;2023-06-22T00:39:46;4.23;;;3.33;;
13406;SDS011;6774;48.208;10.766;2023-06-22T00:42:13;5.23;;;3.50;;
13406;SDS011;6774;48.208;10.766;2023-06-22T00:44:41;2.73;;;2.53;;
13406;SDS011;6774;48.208;10.766;2023-06-22T00:47:10;6.83;;;3.20;;
13406;SDS011;6774;48.208;10.766;2023-06-22T00:49:39;7.53;;;3.83;;
13406;SDS011;6774;48.208;10.766;2023-06-22T00:52:07;5.67;;;2.73;;
13406;SDS011;6774;48.208;10.766;2023-06-22T00:54:41;3.27;;;3.07;;
13406;SDS011;6774;48.208;10.766;2023-06-22T00:57:11;5.13;;;4.30;;
13406;SDS011;6774;48.208;10.766;2023-06-22T00:59:42;3.63;;;3.33;;
13406;SDS011;6774;48.208;10.766;2023-06-22T01:02:11;4.43;;;2.47;;
13406;SDS011;6774;48.208;10.766;2023-06-22T01:04:39;3.53;;;2.17;;
13406;SDS011;6774;48.208;10.766;2023-06-22T01:07:10;2.47;;;2.33;;
13406;SDS011;6774;48.208;10.766;2023-06-22T01:09:43;2.90;;;2.70;;
13406;SDS011;6774;48.208;10.766;2023-06-22T01:12:17;4.73;;;4.20;;
13406;SDS011;6774;48.208;10.766;2023-06-22T01:14:47;4.43;;;4.03;;
13406;SDS011;6774;48.208;10.766;2023-06-22T01:17:20;6.17;;;3.20;;
13406;SDS011;6774;48.208;10.766;2023-06-22T01:19:50;7.57;;;4.07;;
13406;SDS011;6774;48.208;10.766;2023-06-22T01:22:23;4.67;;;4.27;;
13406;SDS011;6774;48.208;10.766;2023-06-22T01:25:00;6.63;;;4.63;;
13406;SDS011;6774;48.208;10.766;2023-06-22T01:27:39;5.53;;;4.53;;
13406;SDS011;6774;48.208;10.766;2023-06-22T01:30:16;7.50;;;4.47;;
13406;SDS011;6774;48.208;10.766;2023-06-22T01:32:46;3.83;;;3.63;;
13406;SDS011;6774;48.208;10.766;2023-06-22T01:35:16;4.00;;;3.70;;
13406;SDS011;6774;48.208;10.766;2023-06-22T01:37:46;4.47;;;3.70;;
13406;SDS011;6774;48.208;10.766;2023-06-22T01:40:14;12.57;;;6.97;;
13406;SDS011;6774;48.208;10.766;2023-06-22T01:42:43;5.93;;;5.07;;
13406;SDS011;6774;48.208;10.766;2023-06-22T01:45:12;5.03;;;4.63;;
13406;SDS011;6774;48.208;10.766;2023-06-22T01:47:42;3.97;;;3.57;;
13406;SDS011;6774;48.208;10.766;2023-06-22T01:50:10;4.77;;;4.37;;
13406;SDS011;6774;48.208;10.766;2023-06-22T01:52:39;5.70;;;3.67;;
13406;SDS011;6774;48.208;10.766;2023-06-22T01:55:07;3.97;;;3.60;;
13406;SDS011;6774;48.208;10.766;2023-06-22T01:57:35;3.83;;;3.53;;
13406;SDS011;6774;48.208;10.766;2023-06-22T02:00:05;8.83;;;4.13;;
13406;SDS011;6774;48.208;10.766;2023-06-22T02:02:43;4.93;;;4.53;;
13406;SDS011;6774;48.208;10.766;2023-06-22T02:05:26;4.50;;;4.30;;
13406;SDS011;6774;48.208;10.766;2023-06-22T02:08:00;5.83;;;5.00;;
13406;SDS011;6774;48.208;10.766;2023-06-22T02:10:33;4.20;;;3.83;;
13406;SDS011;6774;48.208;10.766;2023-06-22T02:13:04;4.17;;;3.87;;
13406;SDS011;6774;48.208;10.766;2023-06-22T02:15:34;4.60;;;4.00;;
13406;SDS011;6774;48.208;10.766;2023-06-22T02:18:04;3.87;;;3.53;;
13406;SDS011;6774;48.208;10.766;2023-06-22T02:20:32;3.93;;;3.63;;
13406;SDS011;6774;48.208;10.766;2023-06-22T02:23:00;3.73;;;3.47;;
13406;SDS011;6774;48.208;10.766;2023-06-22T02:25:28;5.47;;;2.83;;
13406;SDS011;6774;48.208;10.766;2023-06-22T02:27:56;5.33;;;4.23;;
13406;SDS011;6774;48.208;10.766;2023-06-22T02:30:24;5.33;;;4.83;;
13406;SDS011;6774;48.208;10.766;2023-06-22T02:32:52;5.47;;;4.13;;
13406;SDS011;6774;48.208;10.766;2023-06-22T02:35:26;3.73;;;3.27;;
13406;SDS011;6774;48.208;10.766;2023-06-22T02:37:58;5.17;;;3.83;;
13406;SDS011;6774;48.208;10.766;2023-06-22T02:40:27;4.83;;;3.43;;
13406;SDS011;6774;48.208;10.766;2023-06-22T02:42:56;4.83;;;4.47;;
13406;SDS011;6774;48.208;10.766;2023-06-22T02:45:28;4.03;;;3.50;;
13406;SDS011;6774;48.208;10.766;2023-06-22T02:47:56;3.43;;;3.23;;
13406;SDS011;6774;48.208;10.766;2023-06-22T02:50:24;4.70;;;4.30;;
13406;SDS011;6774;48.208;10.766;2023-06-22T02:52:54;4.17;;;3.87;;
13406;SDS011;6774;48.208;10.766;2023-06-22T02:55:22;5.70;;;4.83;;
13406;SDS011;6774;48.208;10.766;2023-06-22T02:57:55;3.67;;;3.33;;
13406;SDS011;6774;48.208;10.766;2023-06-22T03:00:23;3.60;;;3.27;;
13406;SDS011;6774;48.208;10.766;2023-06-22T03:02:57;4.23;;;3.83;;
13406;SDS011;6774;48.208;10.766;2023-06-22T03:05:25;4.07;;;3.70;;
13406;SDS011;6774;48.208;10.766;2023-06-22T03:07:55;3.93;;;2.90;;
13406;SDS011;6774;48.208;10.766;2023-06-22T03:10:24;4.90;;;4.50;;
13406;SDS011;6774;48.208;10.766;2023-06-22T03:12:52;5.70;;;4.53;;
13406;SDS011;6774;48.208;10.766;2023-06-22T03:15:20;4.20;;;3.93;;
13406;SDS011;6774;48.208;10.766;2023-06-22T03:17:50;3.17;;;2.90;;
13406;SDS011;6774;48.208;10.766;2023-06-22T03:20:18;3.93;;;3.20;;
13406;SDS011;6774;48.208;10.766;2023-06-22T03:22:46;3.90;;;3.70;;
13406;SDS011;6774;48.208;10.766;2023-06-22T03:25:16;6.57;;;5.10;;
13406;SDS011;6774;48.208;10.766;2023-06-22T03:27:47;4.27;;;3.60;;
13406;SDS011;6774;48.208;10.766;2023-06-22T03:30:15;4.67;;;4.27;;
13406;SDS011;6774;48.208;10.766;2023-06-22T03:32:44;3.73;;;3.43;;
13406;SDS011;6774;48.208;10.766;2023-06-22T03:35:13;3.67;;;3.37;;
13406;SDS011;6774;48.208;10.766;2023-06-22T03:37:41;3.50;;;3.30;;
13406;SDS011;6774;48.208;10.766;2023-06-22T03:40:09;3.10;;;2.90;;
13406;SDS011;6774;48.208;10.766;2023-06-22T03:42:38;3.73;;;3.40;;
13406;SDS011;6774;48.208;10.766;2023-06-22T03:45:08;6.80;;;3.17;;
13406;SDS011;6774;48.208;10.766;2023-06-22T03:47:37;3.53;;;2.67;;
13406;SDS011;6774;48.208;10.766;2023-06-22T03:50:05;2.53;;;2.40;;
13406;SDS011;6774;48.208;10.766;2023-06-22T03:52:33;2.97;;;2.70;;
13406;SDS011;6774;48.208;10.766;2023-06-22T03:55:01;4.70;;;3.40;;
13406;SDS011;6774;48.208;10.766;2023-06-22T03:57:29;4.27;;;3.90;;
13406;SDS011;6774;48.208;10.766;2023-06-22T03:59:58;3.17;;;2.93;;
13406;SDS011;6774;48.208;10.766;2023-06-22T04:02:26;4.10;;;3.73;;
13406;SDS011;6774;48.208;10.766;2023-06-22T04:04:53;4.43;;;3.57;;
13406;SDS011;6774;48.208;10.766;2023-06-22T04:07:22;3.27;;;3.07;;
13406;SDS011;6774;48.208;10.766;2023-06-22T04:09:50;3.33;;;3.10;;
13406;SDS011;6774;48.208;10.766;2023-06-22T04:12:17;3.83;;;3.60;;
13406;SDS011;6774;48.208;10.766;2023-06-22T04:14:45;4.20;;;3.47;;
13406;SDS011;6774;48.208;10.766;2023-06-22T04:17:14;5.70;;;4.63;;
13406;SDS011;6774;48.208;10.766;2023-06-22T04:19:44;3.70;;;3.47;;
13406;SDS011;6774;48.208;10.766;2023-06-22T04:22:11;3.63;;;3.43;;
13406;SDS011;6774;48.208;10.766;2023-06-22T04:24:39;4.17;;;3.63;;
13406;SDS011;6774;48.208;10.766;2023-06-22T04:27:07;4.67;;;4.20;;
13406;SDS011;6774;48.208;10.766;2023-06-22T04:29:34;5.63;;;4.33;;
13406;SDS011;6774;48.208;10.766;2023-06-22T04:32:02;5.20;;;4.13;;
13406;SDS011;6774;48.208;10.766;2023-06-22T04:34:33;9.33;;;4.03;;
13406;SDS011;6774;48.208;10.766;2023-06-22T04:37:00;6.57;;;4.23;;
13406;SDS011;6774;48.208;10.766;2023-06-22T04:39:28;3.40;;;3.20;;
13406;SDS011;6774;48.208;10.766;2023-06-22T04:41:56;3.90;;;3.47;;
13406;SDS011;6774;48.208;10.766;2023-06-22T04:44:26;3.63;;;3.30;;
13406;SDS011;6774;48.208;10.766;2023-06-22T04:46:54;5.10;;;4.67;;
13406;SDS011;6774;48.208;10.766;2023-06-22T04:49:27;3.90;;;3.27;;
13406;SDS011;6774;48.208;10.766;2023-06-22T04:52:01;3.10;;;2.83;;
13406;SDS011;6774;48.208;10.766;2023-06-22T04:54:29;6.03;;;4.37;;
13406;SDS011;6774;48.208;10.766;2023-06-22T04:56:59;5.27;;;3.90;;
13406;SDS011;6774;48.208;10.766;2023-06-22T04:59:27;3.63;;;3.30;;
13406;SDS011;6774;48.208;10.766;2023-06-22T05:01:56;5.47;;;4.50;;
13406;SDS011;6774;48.208;10.766;2023-06-22T05:04:24;4.50;;;4.17;;
13406;SDS011;6774;48.208;10.766;2023-06-22T05:06:54;3.57;;;3.33;;
13406;SDS011;6774;48.208;10.766;2023-06-22T05:09:23;5.23;;;4.60;;
13406;SDS011;6774;48.208;10.766;2023-06-22T05:11:51;4.60;;;4.30;;
13406;SDS011;6774;48.208;10.766;2023-06-22T05:14:19;4.77;;;3.30;;
13406;SDS011;6774;48.208;10.766;2023-06-22T05:16:47;5.80;;;5.40;;
13406;SDS011;6774;48.208;10.766;2023-06-22T05:19:18;4.00;;;3.37;;
13406;SDS011;6774;48.208;10.766;2023-06-22T05:21:46;13.23;;;6.50;;
13406;SDS011;6774;48.208;10.766;2023-06-22T05:24:13;4.40;;;4.10;;
13406;SDS011;6774;48.208;10.766;2023-06-22T05:26:42;4.77;;;4.17;;
13406;SDS011;6774;48.208;10.766;2023-06-22T05:29:10;4.93;;;4.43;;
13406;SDS011;6774;48.208;10.766;2023-06-22T05:31:38;4.73;;;4.30;;
13406;SDS011;6774;48.208;10.766;2023-06-22T05:34:07;5.97;;;5.17;;
13406;SDS011;6774;48.208;10.766;2023-06-22T05:36:34;5.30;;;3.93;;
13406;SDS011;6774;48.208;10.766;2023-06-22T05:39:10;5.40;;;4.73;;
13406;SDS011;6774;48.208;10.766;2023-06-22T05:41:39;6.20;;;5.60;;
13406;SDS011;6774;48.208;10.766;2023-06-22T05:44:09;5.63;;;4.93;;
13406;SDS011;6774;48.208;10.766;2023-06-22T05:46:37;4.50;;;4.10;;
13406;SDS011;6774;48.208;10.766;2023-06-22T05:49:06;7.17;;;6.13;;
13406;SDS011;6774;48.208;10.766;2023-06-22T05:51:34;6.30;;;4.47;;
13406;SDS011;6774;48.208;10.766;2023-06-22T05:54:02;5.07;;;4.57;;
13406;SDS011;6774;48.208;10.766;2023-06-22T05:56:30;10.50;;;5.13;;
13406;SDS011;6774;48.208;10.766;2023-06-22T05:58:58;5.53;;;5.07;;
13406;SDS011;6774;48.208;10.766;2023-06-22T06:01:27;5.17;;;4.20;;
13406;SDS011;6774;48.208;10.766;2023-06-22T06:03:55;4.17;;;3.93;;
13406;SDS011;6774;48.208;10.766;2023-06-22T06:06:22;5.63;;;5.17;;
13406;SDS011;6774;48.208;10.766;2023-06-22T06:08:55;5.30;;;4.83;;
13406;SDS011;6774;48.208;10.766;2023-06-22T06:11:22;10.00;;;6.10;;
13406;SDS011;6774;48.208;10.766;2023-06-22T06:13:51;7.50;;;6.80;;
13406;SDS011;6774;48.208;10.766;2023-06-22T06:16:18;8.57;;;5.27;;
13406;SDS011;6774;48.208;10.766;2023-06-22T06:18:48;4.70;;;4.30;;
13406;SDS011;6774;48.208;10.766;2023-06-22T06:21:16;8.63;;;6.67;;
13406;SDS011;6774;48.208;10.766;2023-06-22T06:23:44;5.83;;;5.23;;
13406;SDS011;6774;48.208;10.766;2023-06-22T06:26:13;6.27;;;5.73;;
13406;SDS011;6774;48.208;10.766;2023-06-22T06:28:43;5.80;;;5.40;;
13406;SDS011;6774;48.208;10.766;2023-06-22T06:31:10;5.03;;;4.73;;
13406;SDS011;6774;48.208;10.766;2023-06-22T06:33:43;7.10;;;4.63;;
13406;SDS011;6774;48.208;10.766;2023-06-22T06:36:12;8.60;;;4.93;;
13406;SDS011;6774;48.208;10.766;2023-06-22T06:38:40;5.93;;;3.80;;
13406;SDS011;6774;48.208;10.766;2023-06-22T06:41:08;5.80;;;5.37;;
13406;SDS011;6774;48.208;10.766;2023-06-22T06:43:36;5.70;;;4.90;;
13406;SDS011;6774;48.208;10.766;2023-06-22T06:46:03;4.97;;;4.57;;
13406;SDS011;6774;48.208;10.766;2023-06-22T06:48:31;5.00;;;4.60;;
13406;SDS011;6774;48.208;10.766;2023-06-22T06:50:59;5.30;;;4.63;;
13406;SDS011;6774;48.208;10.766;2023-06-22T06:53:28;5.73;;;5.23;;
13406;SDS011;6774;48.208;10.766;2023-06-22T06:55:56;6.00;;;4.75;;
13406;SDS011;6774;48.208;10.766;2023-06-22T06:58:24;6.03;;;5.43;;
13406;SDS011;6774;48.208;10.766;2023-06-22T07:00:52;13.87;;;8.80;;
13406;SDS011;6774;48.208;10.766;2023-06-22T07:03:19;5.80;;;4.53;;
13406;SDS011;6774;48.208;10.766;2023-06-22T07:05:47;7.30;;;6.85;;
13406;SDS011;6774;48.208;10.766;2023-06-22T07:08:15;9.00;;;5.40;;
13406;SDS011;6774;48.208;10.766;2023-06-22T07:10:44;6.53;;;5.55;;
13406;SDS011;6774;48.208;10.766;2023-06-22T07:13:12;5.80;;;5.40;;
13406;SDS011;6774;48.208;10.766;2023-06-22T07:15:39;9.00;;;6.22;;
13406;SDS011;6774;48.208;10.766;2023-06-22T07:18:07;9.40;;;7.30;;
13406;SDS011;6774;48.208;10.766;2023-06-22T07:20:35;9.38;;;5.43;;
13406;SDS011;6774;48.208;10.766;2023-06-22T07:23:03;5.95;;;5.43;;
13406;SDS011;6774;48.208;10.766;2023-06-22T07:25:30;5.50;;;5.05;;
13406;SDS011;6774;48.208;10.766;2023-06-22T07:28:00;6.90;;;6.28;;
13406;SDS011;6774;48.208;10.766;2023-06-22T07:30:29;5.22;;;4.82;;
13406;SDS011;6774;48.208;10.766;2023-06-22T07:32:58;6.28;;;5.85;;
13406;SDS011;6774;48.208;10.766;2023-06-22T07:35:30;7.07;;;5.97;;
13406;SDS011;6774;48.208;10.766;2023-06-22T07:37:57;9.32;;;5.78;;
13406;SDS011;6774;48.208;10.766;2023-06-22T07:40:30;7.35;;;6.75;;
13406;SDS011;6774;48.208;10.766;2023-06-22T07:42:59;8.02;;;6.38;;
13406;SDS011;6774;48.208;10.766;2023-06-22T07:45:27;6.70;;;5.88;;
13406;SDS011;6774;48.208;10.766;2023-06-22T07:47:55;7.38;;;6.22;;
13406;SDS011;6774;48.208;10.766;2023-06-22T07:50:23;8.02;;;5.70;;
13406;SDS011;6774;48.208;10.766;2023-06-22T07:52:51;17.98;;;6.20;;
13406;SDS011;6774;48.208;10.766;2023-06-22T07:55:19;6.07;;;5.53;;
13406;SDS011;6774;48.208;10.766;2023-06-22T07:57:48;7.70;;;7.00;;
13406;SDS011;6774;48.208;10.766;2023-06-22T08:00:19;12.07;;;5.57;;
13406;SDS011;6774;48.208;10.766;2023-06-22T08:02:48;5.60;;;5.10;;
13406;SDS011;6774;48.208;10.766;2023-06-22T08:05:16;5.60;;;4.72;;
13406;SDS011;6774;48.208;10.766;2023-06-22T08:07:48;5.85;;;4.50;;
13406;SDS011;6774;48.208;10.766;2023-06-22T08:10:17;10.55;;;6.72;;
13406;SDS011;6774;48.208;10.766;2023-06-22T08:12:46;7.65;;;5.57;;
13406;SDS011;6774;48.208;10.766;2023-06-22T08:15:14;6.28;;;4.82;;
13406;SDS011;6774;48.208;10.766;2023-06-22T08:17:43;10.38;;;5.35;;
13406;SDS011;6774;48.208;10.766;2023-06-22T08:20:11;6.50;;;6.00;;
13406;SDS011;6774;48.208;10.766;2023-06-22T08:22:39;10.25;;;5.78;;
13406;SDS011;6774;48.208;10.766;2023-06-22T08:25:08;4.50;;;4.03;;
13406;SDS011;6774;48.208;10.766;2023-06-22T08:27:36;4.40;;;4.15;;
13406;SDS011;6774;48.208;10.766;2023-06-22T08:30:05;11.18;;;7.85;;
13406;SDS011;6774;48.208;10.766;2023-06-22T08:32:34;6.43;;;5.95;;
13406;SDS011;6774;48.208;10.766;2023-06-22T08:35:03;8.68;;;6.93;;
13406;SDS011;6774;48.208;10.766;2023-06-22T08:37:32;5.47;;;5.07;;
13406;SDS011;6774;48.208;10.766;2023-06-22T08:40:03;11.20;;;8.07;;
13406;SDS011;6774;48.208;10.766;2023-06-22T08:42:33;5.72;;;5.28;;
13406;SDS011;6774;48.208;10.766;2023-06-22T08:45:00;10.13;;;8.05;;
13406;SDS011;6774;48.208;10.766;2023-06-22T08:47:28;5.55;;;5.13;;
13406;SDS011;6774;48.208;10.766;2023-06-22T08:49:56;6.38;;;5.18;;
13406;SDS011;6774;48.208;10.766;2023-06-22T08:52:25;8.55;;;6.30;;
13406;SDS011;6774;48.208;10.766;2023-06-22T08:54:53;8.77;;;5.28;;
13406;SDS011;6774;48.208;10.766;2023-06-22T08:57:20;5.80;;;5.25;;
13406;SDS011;6774;48.208;10.766;2023-06-22T08:59:48;5.63;;;5.13;;
13406;SDS011;6774;48.208;10.766;2023-06-22T09:02:18;7.03;;;6.05;;
13406;SDS011;6774;48.208;10.766;2023-06-22T09:04:46;6.47;;;5.47;;
13406;SDS011;6774;48.208;10.766;2023-06-22T09:07:15;6.28;;;5.07;;
13406;SDS011;6774;48.208;10.766;2023-06-22T09:09:50;7.13;;;5.22;;
13406;SDS011;6774;48.208;10.766;2023-06-22T09:12:18;12.38;;;5.85;;
13406;SDS011;6774;48.208;10.766;2023-06-22T09:14:50;6.85;;;6.10;;
13406;SDS011;6774;48.208;10.766;2023-06-22T09:17:18;9.57;;;5.15;;
13406;SDS011;6774;48.208;10.766;2023-06-22T09:19:46;5.50;;;4.95;;
13406;SDS011;6774;48.208;10.766;2023-06-22T09:22:15;8.45;;;5.13;;
13406;SDS011;6774;48.208;10.766;2023-06-22T09:24:43;8.40;;;5.18;;
13406;SDS011;6774;48.208;10.766;2023-06-22T09:27:12;5.70;;;5.28;;
13406;SDS011;6774;48.208;10.766;2023-06-22T09:29:40;6.97;;;6.05;;
13406;SDS011;6774;48.208;10.766;2023-06-22T09:32:07;5.93;;;5.35;;
13406;SDS011;6774;48.208;10.766;2023-06-22T09:34:36;8.88;;;5.55;;
13406;SDS011;6774;48.208;10.766;2023-06-22T09:37:04;6.90;;;6.22;;
13406;SDS011;6774;48.208;10.766;2023-06-22T09:39:32;6.60;;;5.38;;
13406;SDS011;6774;48.208;10.766;2023-06-22T09:42:00;5.40;;;4.90;;
13406;SDS011;6774;48.208;10.766;2023-06-22T09:44:29;6.63;;;5.97;;
13406;SDS011;6774;48.208;10.766;2023-06-22T09:46:57;8.30;;;6.38;;
13406;SDS011;6774;48.208;10.766;2023-06-22T09:49:24;8.63;;;5.50;;
13406;SDS011;6774;48.208;10.766;2023-06-22T09:52:12;6.80;;;6.22;;
13406;SDS011;6774;48.208;10.766;2023-06-22T09:54:40;6.85;;;5.50;;
13406;SDS011;6774;48.208;10.766;2023-06-22T09:57:07;14.35;;;6.28;;
13406;SDS011;6774;48.208;10.766;2023-06-22T09:59:36;7.20;;;6.50;;
13406;SDS011;6774;48.208;10.766;2023-06-22T10:02:06;5.78;;;5.38;;
13406;SDS011;6774;48.208;10.766;2023-06-22T10:04:34;6.15;;;5.47;;
13406;SDS011;6774;48.208;10.766;2023-06-22T10:07:02;6.95;;;6.35;;
13406;SDS011;6774;48.208;10.766;2023-06-22T10:09:30;7.63;;;6.80;;
13406;SDS011;6774;48.208;10.766;2023-06-22T10:11:58;9.07;;;4.88;;
13406;SDS011;6774;48.208;10.766;2023-06-22T10:14:26;5.82;;;5.43;;
13406;SDS011;6774;48.208;10.766;2023-06-22T10:16:57;8.27;;;7.50;;
13406;SDS011;6774;48.208;10.766;2023-06-22T10:19:25;9.65;;;5.90;;
13406;SDS011;6774;48.208;10.766;2023-06-22T10:21:53;6.55;;;5.93;;
13406;SDS011;6774;48.208;10.766;2023-06-22T10:24:21;8.32;;;6.18;;
13406;SDS011;6774;48.208;10.766;2023-06-22T10:26:49;4.85;;;4.55;;
13406;SDS011;6774;48.208;10.766;2023-06-22T10:29:17;5.97;;;5.45;;
13406;SDS011;6774;48.208;10.766;2023-06-22T10:31:44;6.68;;;5.00;;
13406;SDS011;6774;48.208;10.766;2023-06-22T10:34:14;6.85;;;5.13;;
13406;SDS011;6774;48.208;10.766;2023-06-22T10:36:41;5.15;;;4.75;;
13406;SDS011;6774;48.208;10.766;2023-06-22T10:39:09;13.45;;;5.68;;
13406;SDS011;6774;48.208;10.766;2023-06-22T10:41:37;7.97;;;5.55;;
13406;SDS011;6774;48.208;10.766;2023-06-22T10:44:05;4.88;;;4.57;;
13406;SDS011;6774;48.208;10.766;2023-06-22T10:46:32;7.53;;;5.20;;
13406;SDS011;6774;48.208;10.766;2023-06-22T10:49:00;6.43;;;4.70;;
13406;SDS011;6774;48.208;10.766;2023-06-22T10:51:30;6.15;;;5.10;;
13406;SDS011;6774;48.208;10.766;2023-06-22T10:53:58;5.78;;;5.30;;
13406;SDS011;6774;48.208;10.766;2023-06-22T10:56:26;9.80;;;6.28;;
13406;SDS011;6774;48.208;10.766;2023-06-22T10:58:54;8.40;;;6.70;;
13406;SDS011;6774;48.208;10.766;2023-06-22T11:01:22;6.72;;;6.05;;
13406;SDS011;6774;48.208;10.766;2023-06-22T11:03:53;10.07;;;5.00;;
13406;SDS011;6774;48.208;10.766;2023-06-22T11:06:20;10.77;;;7.28;;
13406;SDS011;6774;48.208;10.766;2023-06-22T11:08:49;7.13;;;6.07;;
13406;SDS011;6774;48.208;10.766;2023-06-22T11:11:37;6.68;;;5.80;;
13406;SDS011;6774;48.208;10.766;2023-06-22T11:14:05;16.83;;;5.60;;
13406;SDS011;6774;48.208;10.766;2023-06-22T11:16:33;7.43;;;6.72;;
13406;SDS011;6774;48.208;10.766;2023-06-22T11:19:01;11.07;;;6.68;;
13406;SDS011;6774;48.208;10.766;2023-06-22T11:21:29;12.80;;;8.20;;
13406;SDS011;6774;48.208;10.766;2023-06-22T11:23:59;10.27;;;6.63;;
13406;SDS011;6774;48.208;10.766;2023-06-22T11:26:27;9.85;;;4.38;;
13406;SDS011;6774;48.208;10.766;2023-06-22T11:28:54;6.95;;;5.68;;
13406;SDS011;6774;48.208;10.766;2023-06-22T11:31:22;10.23;;;3.60;;
13406;SDS011;6774;48.208;10.766;2023-06-22T11:33:52;5.90;;;5.32;;
13406;SDS011;6774;48.208;10.766;2023-06-22T11:36:20;11.40;;;5.13;;
13406;SDS011;6774;48.208;10.766;2023-06-22T11:38:48;11.65;;;5.55;;
13406;SDS011;6774;48.208;10.766;2023-06-22T11:41:17;7.60;;;5.90;;
13406;SDS011;6774;48.208;10.766;2023-06-22T11:43:44;10.60;;;6.13;;
13406;SDS011;6774;48.208;10.766;2023-06-22T11:46:12;4.85;;;4.55;;
13406;SDS011;6774;48.208;10.766;2023-06-22T11:48:40;6.43;;;5.90;;
13406;SDS011;6774;48.208;10.766;2023-06-22T11:51:08;5.25;;;4.25;;
13406;SDS011;6774;48.208;10.766;2023-06-22T11:53:35;5.30;;;4.75;;
13406;SDS011;6774;48.208;10.766;2023-06-22T11:56:03;8.43;;;5.43;;
13406;SDS011;6774;48.208;10.766;2023-06-22T11:58:34;6.60;;;4.93;;
13406;SDS011;6774;48.208;10.766;2023-06-22T12:01:02;7.65;;;5.15;;
13406;SDS011;6774;48.208;10.766;2023-06-22T12:03:30;4.30;;;4.07;;
13406;SDS011;6774;48.208;10.766;2023-06-22T12:05:59;6.28;;;5.70;;
13406;SDS011;6774;48.208;10.766;2023-06-22T12:08:27;13.43;;;5.47;;
13406;SDS011;6774;48.208;10.766;2023-06-22T12:10:54;10.13;;;4.93;;
13406;SDS011;6774;48.208;10.766;2023-06-22T12:13:22;8.27;;;5.30;;
13406;SDS011;6774;48.208;10.766;2023-06-22T12:15:51;6.63;;;5.53;;
13406;SDS011;6774;48.208;10.766;2023-06-22T12:18:19;4.82;;;4.43;;
13406;SDS011;6774;48.208;10.766;2023-06-22T12:20:47;10.45;;;5.65;;
13406;SDS011;6774;48.208;10.766;2023-06-22T12:23:15;19.77;;;6.20;;
13406;SDS011;6774;48.208;10.766;2023-06-22T12:25:44;8.43;;;6.25;;
13406;SDS011;6774;48.208;10.766;2023-06-22T12:28:12;5.55;;;4.90;;
13406;SDS011;6774;48.208;10.766;2023-06-22T12:30:40;5.45;;;4.95;;
13406;SDS011;6774;48.208;10.766;2023-06-22T12:33:09;6.00;;;5.28;;
13406;SDS011;6774;48.208;10.766;2023-06-22T12:35:37;16.98;;;6.70;;
13406;SDS011;6774;48.208;10.766;2023-06-22T12:38:05;10.38;;;5.18;;
13406;SDS011;6774;48.208;10.766;2023-06-22T12:40:34;5.32;;;4.75;;
13406;SDS011;6774;48.208;10.766;2023-06-22T12:43:02;6.13;;;5.50;;
13406;SDS011;6774;48.208;10.766;2023-06-22T12:45:30;4.53;;;4.20;;
13406;SDS011;6774;48.208;10.766;2023-06-22T12:48:00;9.20;;;6.43;;
13406;SDS011;6774;48.208;10.766;2023-06-22T12:50:29;5.00;;;4.30;;
13406;SDS011;6774;48.208;10.766;2023-06-22T12:52:57;9.40;;;6.20;;
13406;SDS011;6774;48.208;10.766;2023-06-22T12:55:26;6.82;;;4.72;;
13406;SDS011;6774;48.208;10.766;2023-06-22T12:57:54;6.40;;;5.53;;
13406;SDS011;6774;48.208;10.766;2023-06-22T13:00:21;5.35;;;4.85;;
13406;SDS011;6774;48.208;10.766;2023-06-22T13:02:49;8.90;;;6.45;;
13406;SDS011;6774;48.208;10.766;2023-06-22T13:05:19;11.20;;;6.45;;
13406;SDS011;6774;48.208;10.766;2023-06-22T13:07:49;11.07;;;5.43;;
13406;SDS011;6774;48.208;10.766;2023-06-22T13:10:17;10.13;;;5.30;;
13406;SDS011;6774;48.208;10.766;2023-06-22T13:12:45;8.10;;;6.65;;
13406;SDS011;6774;48.208;10.766;2023-06-22T13:15:13;10.85;;;6.63;;
13406;SDS011;6774;48.208;10.766;2023-06-22T13:17:41;8.07;;;5.28;;
13406;SDS011;6774;48.208;10.766;2023-06-22T13:20:09;9.45;;;6.20;;
13406;SDS011;6774;48.208;10.766;2023-06-22T13:22:39;10.70;;;6.70;;
13406;SDS011;6774;48.208;10.766;2023-06-22T13:25:10;5.60;;;4.97;;
13406;SDS011;6774;48.208;10.766;2023-06-22T13:27:39;13.70;;;5.90;;
13406;SDS011;6774;48.208;10.766;2023-06-22T13:30:08;8.48;;;6.30;;
13406;SDS011;6774;48.208;10.766;2023-06-22T13:32:40;10.15;;;4.97;;
13406;SDS011;6774;48.208;10.766;2023-06-22T13:35:09;9.60;;;5.53;;
13406;SDS011;6774;48.208;10.766;2023-06-22T13:37:39;8.05;;;5.90;;
13406;SDS011;6774;48.208;10.766;2023-06-22T13:40:08;8.45;;;5.93;;
13406;SDS011;6774;48.208;10.766;2023-06-22T13:42:37;29.58;;;7.25;;
13406;SDS011;6774;48.208;10.766;2023-06-22T13:45:05;13.55;;;6.78;;
13406;SDS011;6774;48.208;10.766;2023-06-22T13:47:34;4.28;;;4.03;;
13406;SDS011;6774;48.208;10.766;2023-06-22T13:50:02;12.70;;;6.30;;
13406;SDS011;6774;48.208;10.766;2023-06-22T13:52:30;11.90;;;6.80;;
13406;SDS011;6774;48.208;10.766;2023-06-22T13:54:58;7.25;;;6.35;;
13406;SDS011;6774;48.208;10.766;2023-06-22T13:57:26;15.50;;;7.90;;
13406;SDS011;6774;48.208;10.766;2023-06-22T13:59:55;5.45;;;4.72;;
13406;SDS011;6774;48.208;10.766;2023-06-22T14:02:22;8.68;;;5.70;;
13406;SDS011;6774;48.208;10.766;2023-06-22T14:04:50;5.32;;;4.78;;
13406;SDS011;6774;48.208;10.766;2023-06-22T14:07:18;9.07;;;5.18;;
13406;SDS011;6774;48.208;10.766;2023-06-22T14:09:47;7.00;;;5.25;;
13406;SDS011;6774;48.208;10.766;2023-06-22T14:12:16;12.80;;;5.40;;
13406;SDS011;6774;48.208;10.766;2023-06-22T14:14:44;7.85;;;5.05;;
13406;SDS011;6774;48.208;10.766;2023-06-22T14:17:15;7.60;;;4.43;;
13406;SDS011;6774;48.208;10.766;2023-06-22T14:19:43;12.68;;;4.38;;
13406;SDS011;6774;48.208;10.766;2023-06-22T14:22:11;9.77;;;4.78;;
13406;SDS011;6774;48.208;10.766;2023-06-22T14:24:38;14.40;;;5.78;;
13406;SDS011;6774;48.208;10.766;2023-06-22T14:27:07;14.38;;;5.65;;
13406;SDS011;6774;48.208;10.766;2023-06-22T14:29:35;8.82;;;5.45;;
13406;SDS011;6774;48.208;10.766;2023-06-22T14:32:03;7.43;;;5.22;;
13406;SDS011;6774;48.208;10.766;2023-06-22T14:34:34;13.07;;;5.90;;
13406;SDS011;6774;48.208;10.766;2023-06-22T14:37:05;11.27;;;6.30;;
13406;SDS011;6774;48.208;10.766;2023-06-22T14:39:35;9.73;;;7.38;;
13406;SDS011;6774;48.208;10.766;2023-06-22T14:42:03;10.80;;;5.88;;
13406;SDS011;6774;48.208;10.766;2023-06-22T14:44:32;8.73;;;5.60;;
13406;SDS011;6774;48.208;10.766;2023-06-22T14:47:02;8.55;;;5.90;;
13406;SDS011;6774;48.208;10.766;2023-06-22T14:49:31;10.82;;;6.78;;
13406;SDS011;6774;48.208;10.766;2023-06-22T14:52:01;5.25;;;4.75;;
13406;SDS011;6774;48.208;10.766;2023-06-22T14:54:29;29.00;;;7.85;;